Time;durP1;ratioP1;P1;durP2;ratioP2;P2;SDS_P1;SDS_P2;PMS_P1;PMS_P2;Temp;Humidity;BMP_temperature;BMP_pressure;BME280_temperature;BME280_humidity;BME280_pressure;Samples;Min_cycle;Max_cycle;Signal;HPM_P1;HPM_P2
2023/04/19 00:01:54;;;;;;;;;;;;;;;15.45;37.08;100394.38;5432571;32;34695;-68
2023/04/19 00:04:56;;;;;;;;;;;;;;;15.67;36.86;100392.22;5424552;32;35520;-78
2023/04/19 00:07:58;;;;;;;;;;;;;;;15.69;36.39;100381.50;5426776;32;35466;-69
2023/04/19 00:11:00;;;;;;;;;;;;;;;15.23;37.47;100383.34;5430226;32;34770;-76
2023/04/19 00:14:02;;;;;;;;;;;;;;;15.76;36.47;100380.19;5424546;32;34783;-71
2023/04/19 00:17:04;;;;;;;;;;;;;;;15.74;36.20;100376.78;5432903;32;35891;-68
2023/04/19 00:20:09;;;;;;;;;;;;;;;15.35;37.00;100369.41;5422212;32;34201;-69
2023/04/19 00:23:11;;;;;;;;;;;;;;;15.56;36.46;100376.06;5430607;32;45907;-69
2023/04/19 00:26:14;;;;;;;;;;;;;;;15.37;36.84;100380.75;5423531;32;35760;-76
2023/04/19 00:29:16;;;;;;;;;;;;;;;15.87;35.93;100368.94;5421595;32;34569;-75
2023/04/19 00:32:18;;;;;;;;;;;;;;;15.29;37.10;100365.31;5416062;32;34889;-76
2023/04/19 00:35:20;;;;;;;;;;;;;;;15.55;36.51;100366.41;5423071;32;35491;-70
2023/04/19 00:38:22;;;;;;;;;;;;;;;15.61;36.14;100359.91;5431947;32;35816;-69
2023/04/19 00:41:24;;;;;;;;;;;;;;;15.30;36.89;100358.22;5424910;32;37144;-75
2023/04/19 00:44:26;;;;;;;;;;;;;;;15.55;36.58;100361.12;5432215;32;35173;-76
2023/04/19 00:47:28;;;;;;;;;;;;;;;14.88;37.74;100360.66;5421408;32;35472;-76
2023/04/19 00:50:30;;;;;;;;;;;;;;;15.83;36.05;100356.81;5423708;32;35447;-70
2023/04/19 00:53:32;;;;;;;;;;;;;;;15.90;35.96;100350.19;5424469;32;34096;-76
2023/04/19 00:56:34;;;;;;;;;;;;;;;14.80;37.96;100352.28;5415687;32;34843;-75
2023/04/19 00:59:36;;;;;;;;;;;;;;;15.09;37.56;100357.69;5420891;32;34352;-76
2023/04/19 01:02:38;;;;;;;;;;;;;;;15.30;36.99;100351.12;5420537;32;35037;-76
2023/04/19 01:05:40;;;;;;;;;;;;;;;15.24;37.52;100353.28;5428160;32;43974;-76
2023/04/19 01:08:42;;;;;;;;;;;;;;;15.61;36.65;100338.72;5422944;32;35156;-70
2023/04/19 01:11:44;;;;;;;;;;;;;;;15.06;37.17;100353.41;5425946;32;34570;-69
2023/04/19 01:14:46;;;;;;;;;;;;;;;15.82;36.05;100336.56;5430958;32;34581;-70
2023/04/19 01:17:48;;;;;;;;;;;;;;;15.78;35.84;100335.94;5405235;32;34882;-69
2023/04/19 01:20:50;;;;;;;;;;;;;;;15.53;36.45;100336.53;5433068;32;35771;-75
2023/04/19 01:23:52;;;;;;;;;;;;;;;14.69;37.96;100330.88;5423396;32;34826;-69
2023/04/19 01:26:55;;;;;;;;;;;;;;;15.34;36.91;100330.62;5431036;32;34429;-75
2023/04/19 01:29:57;;;;;;;;;;;;;;;15.25;36.70;100324.06;5411665;32;35155;-70
2023/04/19 01:32:58;;;;;;;;;;;;;;;14.65;37.71;100324.06;5418201;32;35320;-69
2023/04/19 01:36:00;;;;;;;;;;;;;;;14.74;37.21;100298.84;5430015;32;35831;-75
2023/04/19 01:39:03;;;;;;;;;;;;;;;14.76;37.25;100310.22;5424733;32;35116;-69
2023/04/19 01:42:04;;;;;;;;;;;;;;;15.37;35.93;100304.81;5404813;32;34043;-75
2023/04/19 01:45:07;;;;;;;;;;;;;;;15.38;36.06;100303.84;5412193;32;35077;-75
2023/04/19 01:48:09;;;;;;;;;;;;;;;15.27;36.00;100308.13;5426859;32;35457;-69
2023/04/19 01:51:11;;;;;;;;;;;;;;;15.62;35.60;100301.56;5423659;32;48488;-69
2023/04/19 01:54:12;;;;;;;;;;;;;;;14.85;36.91;100281.44;5424344;32;36471;-77
2023/04/19 01:57:15;;;;;;;;;;;;;;;15.86;35.35;100293.03;5430435;32;35041;-76
2023/04/19 02:00:17;;;;;;;;;;;;;;;15.45;35.79;100286.66;5424411;32;35575;-69
2023/04/19 02:03:19;;;;;;;;;;;;;;;15.21;36.46;100298.75;5431858;32;34657;-71
2023/04/19 02:06:21;;;;;;;;;;;;;;;14.81;37.04;100300.19;5423691;32;35498;-68
2023/04/19 02:09:23;;;;;;;;;;;;;;;14.74;37.33;100298.84;5431417;32;35632;-67
2023/04/19 02:12:27;;;;;;;;;;;;;;;14.68;37.33;100293.91;5423820;32;34784;-69
2023/04/19 02:15:29;;;;;;;;;;;;;;;15.60;35.89;100294.63;5423827;32;34330;-76
2023/04/19 02:18:31;;;;;;;;;;;;;;;14.68;37.39;100293.91;5431482;32;35475;-68
2023/04/19 02:21:33;;;;;;;;;;;;;;;15.03;36.83;100290.09;5423681;32;34260;-69
2023/04/19 02:24:35;;;;;;;;;;;;;;;15.11;36.91;100287.81;5431560;32;34623;-75
2023/04/19 02:27:37;;;;;;;;;;;;;;;15.01;37.09;100283.19;5423137;32;35485;-75
2023/04/19 02:30:39;;;;;;;;;;;;;;;15.05;37.03;100290.84;5413885;32;35300;-75
2023/04/19 02:33:40;;;;;;;;;;;;;;;15.16;37.14;100283.12;5417172;32;44015;-69
2023/04/19 02:36:42;;;;;;;;;;;;;;;15.38;36.79;100276.53;5424373;32;34617;-75
2023/04/19 02:39:45;;;;;;;;;;;;;;;15.31;36.93;100276.03;5431848;32;34987;-76
2023/04/19 02:42:47;;;;;;;;;;;;;;;14.89;37.95;100276.81;5423691;32;34516;-70
2023/04/19 02:45:49;;;;;;;;;;;;;;;14.69;38.84;100271.84;5429376;32;34809;-77
2023/04/19 02:48:51;;;;;;;;;;;;;;;14.86;38.85;100267.25;5420698;32;36465;-75
2023/04/19 02:51:53;;;;;;;;;;;;;;;14.73;39.55;100268.91;5429070;32;35104;-69
2023/04/19 02:54:55;;;;;;;;;;;;;;;14.39;40.26;100248.81;5422080;32;35629;-75
2023/04/19 02:57:57;;;;;;;;;;;;;;;14.58;40.47;100261.88;5423116;32;34442;-76
2023/04/19 03:00:58;;;;;;;;;;;;;;;14.26;41.34;100253.09;5430422;32;35616;-76
2023/04/19 03:04:00;;;;;;;;;;;;;;;14.46;41.23;100257.25;5422603;32;37013;-68
2023/04/19 03:07:02;;;;;;;;;;;;;;;14.06;42.32;100249.78;5430035;32;34042;-69
2023/04/19 03:10:05;;;;;;;;;;;;;;;14.74;41.04;100254.72;5423461;32;34188;-76
2023/04/19 03:13:07;;;;;;;;;;;;;;;14.78;41.01;100245.69;5418581;32;35204;-74
2023/04/19 03:16:09;;;;;;;;;;;;;;;14.76;41.32;100247.59;5424645;32;35527;-75
2023/04/19 03:19:11;;;;;;;;;;;;;;;14.61;41.96;100236.06;5420226;32;48496;-68
2023/04/19 03:22:13;;;;;;;;;;;;;;;14.70;41.72;100242.66;5431019;32;35018;-75
2023/04/19 03:25:16;;;;;;;;;;;;;;;14.65;42.25;100223.53;5421376;32;34778;-69
2023/04/19 03:28:18;;;;;;;;;;;;;;;14.17;43.62;100238.62;5416214;32;36251;-75
2023/04/19 03:31:20;;;;;;;;;;;;;;;14.47;43.26;100233.37;5391488;32;35046;-69
2023/04/19 03:34:22;;;;;;;;;;;;;;;14.07;44.04;100225.06;5431712;32;34988;-70
2023/04/19 03:37:24;;;;;;;;;;;;;;;14.84;42.56;100216.22;5424858;32;34579;-75
2023/04/19 03:40:26;;;;;;;;;;;;;;;15.21;41.63;100218.47;5424844;32;34952;-69
2023/04/19 03:43:28;;;;;;;;;;;;;;;14.05;44.18;100234.88;5431777;32;34919;-68
2023/04/19 03:46:33;;;;;;;;;;;;;;;13.94;44.68;100225.81;5421820;32;34835;-76
2023/04/19 03:49:35;;;;;;;;;;;;;;;14.41;43.71;100233.69;5430515;32;35091;-75
2023/04/19 03:52:37;;;;;;;;;;;;;;;14.66;42.90;100227.03;5423856;32;35349;-75
2023/04/19 03:55:39;;;;;;;;;;;;;;;14.74;42.33;100209.75;5432874;32;35369;-69
2023/04/19 03:58:41;;;;;;;;;;;;;;;14.44;43.12;100232.69;5420210;32;44682;-75
2023/04/19 04:01:43;;;;;;;;;;;;;;;15.00;42.25;100232.03;5425462;32;34801;-76
2023/04/19 04:04:45;;;;;;;;;;;;;;;14.59;42.76;100224.75;5432700;32;36008;-68
2023/04/19 04:07:47;;;;;;;;;;;;;;;14.97;42.21;100231.38;5424163;32;35181;-76
2023/04/19 04:10:49;;;;;;;;;;;;;;;14.72;42.61;100229.31;5432647;32;35125;-69
2023/04/19 04:13:51;;;;;;;;;;;;;;;13.61;44.96;100210.03;5423313;32;34828;-69
2023/04/19 04:16:53;;;;;;;;;;;;;;;14.60;43.36;100220.31;5431355;32;35709;-76
2023/04/19 04:19:55;;;;;;;;;;;;;;;14.13;44.01;100223.00;5425413;32;34788;-75
2023/04/19 04:22:57;;;;;;;;;;;;;;;14.48;43.49;100219.22;5425721;32;36550;-75
2023/04/19 04:25:59;;;;;;;;;;;;;;;14.60;43.31;100220.31;5417995;32;34347;-70
2023/04/19 04:29:01;;;;;;;;;;;;;;;14.38;43.56;100223.31;5409493;32;34264;-69
2023/04/19 04:32:07;;;;;;;;;;;;;;;14.53;43.26;100224.25;5413224;32;35095;-69
2023/04/19 04:35:09;;;;;;;;;;;;;;;14.75;42.79;100224.72;5423509;32;34787;-69
2023/04/19 04:38:12;;;;;;;;;;;;;;;14.93;42.00;100217.47;5423528;32;47923;-75
2023/04/19 04:41:25;;;;;;;;;;;;;;;15.55;40.80;100214.59;5414600;32;34860;-76
2023/04/19 04:44:27;;;;;;;;;;;;;;;15.28;41.04;100212.69;5424237;32;36370;-70
2023/04/19 04:47:31;;;;;;;;;;;;;;;15.44;41.06;100212.59;5411021;32;34631;-69
2023/04/19 04:50:33;;;;;;;;;;;;;;;15.15;41.40;100222.34;5422324;32;34428;-68
2023/04/19 04:53:34;;;;;;;;;;;;;;;15.23;41.45;100224.50;5419128;32;34750;-77
2023/04/19 04:56:36;;;;;;;;;;;;;;;15.52;40.84;100223.59;5410275;32;34938;-69
2023/04/19 04:59:38;;;;;;;;;;;;;;;15.58;40.06;100217.88;5402021;32;35349;-77
2023/04/19 05:02:40;;;;;;;;;;;;;;;15.83;39.63;100192.53;5427986;32;44439;-76
2023/04/19 05:05:42;;;;;;;;;;;;;;;15.51;40.20;100208.62;5424138;32;34397;-78
2023/04/19 05:08:46;;;;;;;;;;;;;;;15.81;40.13;100207.69;5433689;32;34834;-74
2023/04/19 05:11:48;;;;;;;;;;;;;;;16.17;39.22;100207.97;5413990;32;35032;-70
2023/04/19 05:14:49;;;;;;;;;;;;;;;16.72;38.27;100195.53;5413814;32;35060;-68
2023/04/19 05:17:53;;;;;;;;;;;;;;;16.62;38.26;100211.19;5414357;32;36772;-75
2023/04/19 05:20:56;;;;;;;;;;;;;;;15.50;40.43;100206.91;5403671;32;34816;-78
2023/04/19 05:23:58;;;;;;;;;;;;;;;16.47;38.01;100206.87;5433057;32;35463;-75
2023/04/19 05:27:00;;;;;;;;;;;;;;;16.09;38.97;100207.59;5425357;32;34291;-75
2023/04/19 05:30:03;;;;;;;;;;;;;;;17.24;36.79;100202.56;5405807;32;35074;-76
2023/04/19 05:33:06;;;;;;;;;;;;;;;17.28;36.78;100202.25;5412816;32;34335;-76
2023/04/19 05:36:08;;;;;;;;;;;;;;;17.45;35.46;100209.06;5423058;32;36457;-76
2023/04/19 05:39:10;;;;;;;;;;;;;;;17.04;36.59;100214.56;5409569;32;44828;-70
2023/04/19 05:42:12;;;;;;;;;;;;;;;18.56;33.74;100197.41;5413661;32;35039;-69
2023/04/19 05:45:14;;;;;;;;;;;;;;;18.93;32.70;100205.28;5422458;32;36907;-69
2023/04/19 05:48:16;;;;;;;;;;;;;;;19.10;32.29;100201.31;5409828;32;35620;-76
2023/04/19 05:51:18;;;;;;;;;;;;;;;19.78;31.24;100192.41;5417031;32;35832;-69
2023/04/19 05:54:20;;;;;;;;;;;;;;;19.37;31.77;100200.97;5421882;32;34210;-67
2023/04/19 05:57:22;;;;;;;;;;;;;;;18.66;33.00;100203.75;5423925;32;35569;-69
2023/04/19 06:00:24;;;;;;;;;;;;;;;20.24;31.08;100199.34;5408416;32;36083;-73
2023/04/19 06:03:26;;;;;;;;;;;;;;;19.58;31.84;100198.47;5404617;32;34050;-81
2023/04/19 06:06:33;;;;;;;;;;;;;;;19.43;31.70;100187.19;5421695;32;34221;-73
2023/04/19 06:09:35;;;;;;;;;;;;;;;19.54;32.23;100175.69;5408076;32;35637;-68
2023/04/19 06:12:37;;;;;;;;;;;;;;;19.84;31.14;100183.91;5424832;32;35538;-71
2023/04/19 06:15:39;;;;;;;;;;;;;;;20.04;31.59;100189.44;5408511;32;34242;-76
2023/04/19 06:18:42;;;;;;;;;;;;;;;19.19;32.44;100185.50;5424325;32;44796;-83
2023/04/19 06:21:45;;;;;;;;;;;;;;;18.59;33.45;100188.34;5410679;32;34915;-73
2023/04/19 06:24:47;;;;;;;;;;;;;;;19.79;31.17;100169.25;5418965;32;34421;-76
2023/04/19 06:27:49;;;;;;;;;;;;;;;19.54;31.66;100181.00;5402249;32;35361;-67
2023/04/19 06:30:51;;;;;;;;;;;;;;;18.90;32.65;100182.41;5396704;32;33542;-68
2023/04/19 06:33:53;;;;;;;;;;;;;;;17.82;34.89;100188.69;5412186;32;33995;-79
2023/04/19 06:36:55;;;;;;;;;;;;;;;17.72;35.46;100182.34;5406215;32;34176;-79
2023/04/19 06:39:57;;;;;;;;;;;;;;;18.82;33.75;100184.81;5407158;32;35415;-67
2023/04/19 06:42:59;;;;;;;;;;;;;;;18.46;34.45;100171.59;5414229;32;34206;-81
2023/04/19 06:46:03;;;;;;;;;;;;;;;17.65;35.65;100175.75;5424107;32;34220;-68
2023/04/19 06:49:05;;;;;;;;;;;;;;;18.67;33.59;100178.81;5432352;32;35416;-80
2023/04/19 06:52:08;;;;;;;;;;;;;;;18.88;33.45;100176.37;5425718;32;34194;-68
2023/04/19 06:55:12;;;;;;;;;;;;;;;18.97;33.00;100166.81;5434054;32;45226;-79
2023/04/19 06:58:14;;;;;;;;;;;;;;;18.66;33.44;100170.94;5420946;32;34729;-69
2023/04/19 07:01:17;;;;;;;;;;;;;;;19.96;30.87;100172.22;5419052;32;33984;-79
2023/04/19 07:04:19;;;;;;;;;;;;;;;19.78;31.10;100165.75;5418253;32;35411;-78
2023/04/19 07:07:22;;;;;;;;;;;;;;;20.79;29.53;100160.88;5411608;32;34075;-68
2023/04/19 07:10:24;;;;;;;;;;;;;;;20.55;29.66;100158.47;5430752;32;34390;-70
2023/04/19 07:13:26;;;;;;;;;;;;;;;22.36;26.36;100147.94;5422139;32;35431;-68
2023/04/19 07:16:28;;;;;;;;;;;;;;;22.24;26.54;100149.91;5435866;32;33311;-68
2023/04/19 07:19:30;;;;;;;;;;;;;;;23.74;24.47;100143.75;5428741;32;34540;-80
2023/04/19 07:22:33;;;;;;;;;;;;;;;24.04;23.57;100137.19;5419832;32;34525;-79
2023/04/19 07:25:35;;;;;;;;;;;;;;;23.18;23.50;100124.06;5414723;32;34972;-69
2023/04/19 07:28:38;;;;;;;;;;;;;;;25.48;20.68;100130.53;5425192;32;34122;-79
2023/04/19 07:31:40;;;;;;;;;;;;;;;24.14;22.17;100143.31;5414191;32;34365;-69
2023/04/19 07:34:44;;;;;;;;;;;;;;;24.85;21.39;100132.50;5423110;32;35554;-77
2023/04/19 07:37:46;;;;;;;;;;;;;;;26.22;19.81;100118.97;5413453;32;33795;-68
2023/04/19 07:40:48;;;;;;;;;;;;;;;24.64;21.78;100129.34;5400112;32;34250;-78
2023/04/19 07:43:50;;;;;;;;;;;;;;;24.32;21.66;100124.53;5426821;32;34261;-68
2023/04/19 07:46:52;;;;;;;;;;;;;;;24.85;21.19;100111.00;5428529;32;34019;-68
2023/04/19 07:49:55;;;;;;;;;;;;;;;24.65;20.83;100120.28;5423727;32;34757;-68
2023/04/19 07:52:57;;;;;;;;;;;;;;;24.99;19.60;100117.66;5425219;32;35028;-78
2023/04/19 07:55:59;;;;;;;;;;;;;;;26.66;17.90;100119.50;5402882;32;35151;-80
2023/04/19 07:59:01;;;;;;;;;;;;;;;26.16;18.83;100106.16;5434956;32;36242;-79
2023/04/19 08:02:09;;;;;;;;;;;;;;;24.43;21.09;100120.81;5423192;32;35523;-69
2023/04/19 08:05:17;;;;;;;;;;;;;;;23.52;21.42;100110.94;5394893;32;44477;-70
2023/04/19 08:08:19;;;;;;;;;;;;;;;24.36;20.39;100114.38;5429569;32;36216;-65
2023/04/19 08:11:23;;;;;;;;;;;;;;;26.27;18.35;100108.50;5413769;32;34004;-78
2023/04/19 08:14:26;;;;;;;;;;;;;;;26.30;18.83;100112.75;5428155;32;33848;-75
2023/04/19 08:17:44;;;;;;;;;;;;;;;24.55;21.14;100120.41;5418919;32;44564;-74
2023/04/19 08:20:47;;;;;;;;;;;;;;;24.90;21.35;100113.22;5427634;32;33906;-75
2023/04/19 08:23:49;;;;;;;;;;;;;;;24.81;20.98;100098.91;5430932;32;34446;-67
2023/04/19 08:26:55;;;;;;;;;;;;;;;25.41;19.79;100099.91;5427266;32;35939;-67
2023/04/19 08:30:00;;;;;;;;;;;;;;;24.91;19.90;100106.00;5420441;32;34716;-72
2023/04/19 08:33:02;;;;;;;;;;;;;;;26.45;18.75;100103.84;5415254;32;34394;-67
2023/04/19 08:36:04;;;;;;;;;;;;;;;27.45;17.81;100098.06;5421276;32;36152;-67
2023/04/19 08:39:06;;;;;;;;;;;;;;;27.32;17.52;100097.78;5420963;32;34404;-72
2023/04/19 08:42:21;;;;;;;;;;;;;;;26.95;17.15;100099.22;5424801;32;34646;-65
2023/04/19 08:45:37;;;;;;;;;;;;;;;25.80;17.82;100101.06;5438261;32;34135;-67
2023/04/19 08:48:39;;;;;;;;;;;;;;;24.33;19.30;100096.66;5424397;32;34320;-69
2023/04/19 08:51:41;;;;;;;;;;;;;;;24.41;18.94;100099.47;5424004;32;43655;-69
2023/04/19 08:54:43;;;;;;;;;;;;;;;24.64;18.95;100096.25;5422109;32;34178;-68
2023/04/19 08:57:45;;;;;;;;;;;;;;;23.56;20.64;100090.00;5408141;32;34540;-68
2023/04/19 09:00:47;;;;;;;;;;;;;;;22.76;21.70;100096.00;5440844;32;35347;-68
2023/04/19 09:03:49;;;;;;;;;;;;;;;22.75;22.24;100091.63;5415867;32;36462;-78
2023/04/19 09:07:07;;;;;;;;;;;;;;;24.15;21.23;100085.09;5429580;32;35461;-76
2023/04/19 09:10:11;;;;;;;;;;;;;;;24.77;20.28;100089.47;5417295;32;33762;-69
2023/04/19 09:13:13;;;;;;;;;;;;;;;24.06;21.14;100086.88;5434532;32;44456;-78
2023/04/19 09:16:22;;;;;;;;;;;;;;;21.29;24.88;100099.56;5433634;32;36496;-71
2023/04/19 09:19:24;;;;;;;;;;;;;;;21.19;25.65;100095.13;5434132;32;36213;-68
2023/04/19 09:22:26;;;;;;;;;;;;;;;19.62;26.96;100099.47;5421199;32;35631;-72
2023/04/19 09:25:28;;;;;;;;;;;;;;;20.88;26.42;100089.81;5407937;32;36183;-67
2023/04/19 09:28:56;;;;;;;;;;;;;;;21.47;26.35;100090.91;5448156;32;38096;-72
2023/04/19 09:31:59;;;;;;;;;;;;;;;22.86;24.36;100083.41;5426043;32;34177;-70
2023/04/19 09:35:01;;;;;;;;;;;;;;;22.47;25.02;100082.66;5425027;32;35623;-72
2023/04/19 09:38:04;;;;;;;;;;;;;;;22.52;24.69;100083.91;5433782;32;34366;-72
2023/04/19 09:41:08;;;;;;;;;;;;;;;24.08;22.79;100078.66;5425435;32;34222;-75
2023/04/19 09:44:10;;;;;;;;;;;;;;;25.46;21.17;100068.81;5427336;32;35308;-71
2023/04/19 09:47:33;;;;;;;;;;;;;;;24.38;21.94;100078.28;5429280;32;34542;-67
2023/04/19 09:50:36;;;;;;;;;;;;;;;25.40;21.30;100069.47;5430956;32;32812;-67
2023/04/19 09:53:54;;;;;;;;;;;;;;;26.98;18.97;100066.50;5427898;32;35003;-72
2023/04/19 09:56:56;;;;;;;;;;;;;;;28.81;17.48;100053.13;5412318;32;37870;-71
2023/04/19 10:00:06;;;;;;;;;;;;;;;29.22;16.52;100062.66;5427668;32;35478;-68
2023/04/19 10:03:08;;;;;;;;;;;;;;;28.63;16.30;100060.75;5425751;32;34743;-67
2023/04/19 10:06:13;;;;;;;;;;;;;;;28.03;17.40;100062.44;5428320;32;46921;-66
2023/04/19 10:09:35;;;;;;;;;;;;;;;27.19;18.12;100052.47;5434429;32;34635;-64
2023/04/19 10:12:53;;;;;;;;;;;;;;;29.78;16.13;100043.97;5423850;32;37139;-68
2023/04/19 10:15:58;;;;;;;;;;;;;;;27.16;18.23;100044.72;5444976;32;35095;-68
2023/04/19 10:19:19;;;;;;;;;;;;;;;28.52;17.50;100053.94;5423722;32;45420;-71
2023/04/19 10:22:21;;;;;;;;;;;;;;;29.54;16.63;100035.16;5433818;32;35515;-68
2023/04/19 10:25:28;;;;;;;;;;;;;;;30.60;15.89;100032.59;5420909;32;34401;-68
2023/04/19 10:28:30;;;;;;;;;;;;;;;31.10;15.81;100027.88;5415387;32;34835;-72
2023/04/19 10:31:32;;;;;;;;;;;;;;;32.20;16.03;100018.56;5426228;32;34227;-69
2023/04/19 10:34:38;;;;;;;;;;;;;;;31.13;17.57;100033.75;5444693;32;35601;-70
2023/04/19 10:37:40;;;;;;;;;;;;;;;29.52;19.55;100033.69;5447819;32;46376;-69
2023/04/19 10:40:53;;;;;;;;;;;;;;;23.26;27.67;100050.13;5433238;32;34262;-74
2023/04/19 10:43:56;;;;;;;;;;;;;;;22.38;28.97;100038.84;5451438;32;34497;-75
2023/04/19 10:46:58;;;;;;;;;;;;;;;22.36;29.62;100041.69;5435652;32;34502;-75
2023/04/19 10:50:03;;;;;;;;;;;;;;;19.81;33.61;100060.63;5407631;32;35004;-68
2023/04/19 10:53:23;;;;;;;;;;;;;;;21.42;30.40;100051.19;5424864;32;34083;-74
2023/04/19 10:56:31;;;;;;;;;;;;;;;20.59;31.64;100051.41;5424100;32;34258;-63
2023/04/19 10:59:34;;;;;;;;;;;;;;;20.60;31.58;100053.09;5435616;32;34668;-65
2023/04/19 11:02:36;;;;;;;;;;;;;;;20.76;31.24;100054.31;5415438;32;34230;-70
2023/04/19 11:05:57;;;;;;;;;;;;;;;19.94;31.74;100058.66;5415340;32;35440;-77
2023/04/19 11:08:59;;;;;;;;;;;;;;;20.24;31.54;100063.25;5417206;32;34226;-66
2023/04/19 11:12:08;;;;;;;;;;;;;;;21.68;29.19;100045.34;5421424;32;35334;-64
2023/04/19 11:15:10;;;;;;;;;;;;;;;21.18;29.66;100048.00;5409488;32;34761;-68
2023/04/19 11:18:17;;;;;;;;;;;;;;;20.98;29.88;100041.75;5423524;32;46821;-66
2023/04/19 11:21:19;;;;;;;;;;;;;;;20.33;30.81;100050.94;5429969;32;34226;-64
2023/04/19 11:24:21;;;;;;;;;;;;;;;20.44;30.93;100037.53;5436552;32;35558;-69
2023/04/19 11:27:24;;;;;;;;;;;;;;;20.91;29.51;100036.09;5434227;32;34173;-69
2023/04/19 11:30:29;;;;;;;;;;;;;;;20.47;30.28;100043.47;5422920;32;34365;-66
2023/04/19 11:33:34;;;;;;;;;;;;;;;20.91;30.42;100043.28;5422507;32;34666;-65
2023/04/19 11:36:46;;;;;;;;;;;;;;;21.75;29.20;100025.06;5430468;32;34721;-66
2023/04/19 11:39:48;;;;;;;;;;;;;;;20.28;34.10;100038.81;5412945;32;44614;-70
2023/04/19 11:42:54;;;;;;;;;;;;;;;22.82;30.77;100036.47;5431614;32;34499;-65
2023/04/19 11:45:56;;;;;;;;;;;;;;;23.15;30.12;100035.09;5425398;32;36461;-72
2023/04/19 11:48:58;;;;;;;;;;;;;;;23.58;29.19;100039.75;5400347;32;34072;-65
2023/04/19 11:52:01;;;;;;;;;;;;;;;24.99;27.21;100026.28;5434877;32;34390;-68
2023/04/19 11:55:19;;;;;;;;;;;;;;;27.14;24.05;100023.31;5426578;32;34326;-68
2023/04/19 11:58:24;;;;;;;;;;;;;;;26.23;24.82;100025.53;5423647;32;34452;-65
2023/04/19 12:01:26;;;;;;;;;;;;;;;25.19;26.06;100026.87;5427057;32;34290;-64
2023/04/19 12:04:28;;;;;;;;;;;;;;;23.99;27.82;100032.12;5431794;32;33782;-71
2023/04/19 12:07:31;;;;;;;;;;;;;;;23.36;29.10;100030.28;5429343;32;33943;-68
2023/04/19 12:10:33;;;;;;;;;;;;;;;22.83;30.17;100022.91;5437269;32;35705;-67
2023/04/19 12:13:35;;;;;;;;;;;;;;;22.62;31.52;100016.94;5425432;32;35753;-68
2023/04/19 12:16:37;;;;;;;;;;;;;;;23.71;29.81;100024.16;5435615;32;35903;-73
2023/04/19 12:19:43;;;;;;;;;;;;;;;23.58;30.11;100021.00;5439583;32;35302;-67
2023/04/19 12:22:48;;;;;;;;;;;;;;;23.45;30.52;100028.56;5439835;32;44395;-70
2023/04/19 12:25:49;;;;;;;;;;;;;;;22.72;31.51;100023.09;5421417;32;34213;-76
2023/04/19 12:28:52;;;;;;;;;;;;;;;22.13;32.35;100017.03;5451818;32;35271;-66
2023/04/19 12:31:54;;;;;;;;;;;;;;;24.08;28.82;100014.22;5417061;32;37173;-64
2023/04/19 12:34:56;;;;;;;;;;;;;;;23.89;29.02;100016.09;5444962;32;34653;-74
2023/04/19 12:37:58;;;;;;;;;;;;;;;22.71;30.61;100002.66;5427206;32;34367;-63
2023/04/19 12:41:00;;;;;;;;;;;;;;;21.47;32.27;100011.53;5433872;32;34198;-79
2023/04/19 12:44:02;;;;;;;;;;;;;;;22.01;31.27;100007.44;5425723;32;36104;-66
2023/04/19 12:47:04;;;;;;;;;;;;;;;21.29;32.54;100015.84;5424479;32;35358;-72
2023/04/19 12:50:07;;;;;;;;;;;;;;;21.29;32.25;100016.69;5439306;32;35299;-69
2023/04/19 12:53:09;;;;;;;;;;;;;;;21.65;32.51;100009.03;5433500;32;34209;-65
2023/04/19 12:56:11;;;;;;;;;;;;;;;22.20;32.43;100006.59;5449372;32;45847;-75
2023/04/19 12:59:13;;;;;;;;;;;;;;;22.37;32.24;100013.06;5418509;32;34223;-65
2023/04/19 13:02:16;;;;;;;;;;;;;;;21.65;33.37;100018.88;5422955;32;34199;-67
2023/04/19 13:05:18;;;;;;;;;;;;;;;21.68;33.58;100014.06;5414307;32;34380;-64
2023/04/19 13:08:20;;;;;;;;;;;;;;;21.55;33.75;100013.50;5439292;32;33750;-70
2023/04/19 13:11:42;;;;;;;;;;;;;;;21.59;33.21;100012.25;5425280;32;46050;-65
2023/04/19 13:14:46;;;;;;;;;;;;;;;20.34;35.59;100010.75;5426169;32;34351;-75
2023/04/19 13:17:48;;;;;;;;;;;;;;;19.81;36.27;100013.47;5437708;32;34233;-65
2023/04/19 13:20:52;;;;;;;;;;;;;;;21.26;34.21;100014.28;5436729;32;33243;-75
2023/04/19 13:23:54;;;;;;;;;;;;;;;22.37;31.37;100008.56;5428340;32;34845;-65
2023/04/19 13:26:56;;;;;;;;;;;;;;;21.95;31.94;100013.37;5431716;32;34260;-64
2023/04/19 13:29:58;;;;;;;;;;;;;;;20.50;34.29;100015.69;5403615;32;34400;-65
2023/04/19 13:33:00;;;;;;;;;;;;;;;21.33;32.75;100009.28;5424355;32;36018;-73
2023/04/19 13:36:03;;;;;;;;;;;;;;;20.76;33.64;100008.06;5424136;32;38514;-74
2023/04/19 13:39:05;;;;;;;;;;;;;;;20.85;33.48;100003.75;5444678;32;34235;-65
2023/04/19 13:42:09;;;;;;;;;;;;;;;20.26;34.72;100002.56;5432231;32;35753;-66
2023/04/19 13:45:11;;;;;;;;;;;;;;;20.90;33.92;100005.03;5431069;32;44669;-66
2023/04/19 13:48:13;;;;;;;;;;;;;;;20.72;34.51;100001.28;5426524;32;34431;-66
2023/04/19 13:51:15;;;;;;;;;;;;;;;20.81;34.27;99995.16;5426556;32;35617;-72
2023/04/19 13:54:17;;;;;;;;;;;;;;;21.21;33.22;100000.47;5441940;32;35933;-69
2023/04/19 13:57:21;;;;;;;;;;;;;;;21.47;33.10;100003.50;5411887;32;34137;-67
2023/04/19 14:00:23;;;;;;;;;;;;;;;21.52;33.74;100001.28;5433125;32;34452;-69
2023/04/19 14:03:25;;;;;;;;;;;;;;;20.82;35.88;99979.00;5436637;32;35309;-70
2023/04/19 14:06:28;;;;;;;;;;;;;;;21.17;36.22;99999.06;5436325;32;33984;-70
2023/04/19 14:09:30;;;;;;;;;;;;;;;20.58;36.39;100002.50;5404593;32;960535;-73
2023/04/19 14:12:32;;;;;;;;;;;;;;;20.59;37.67;99998.00;5426290;32;34290;-69
2023/04/19 14:15:34;;;;;;;;;;;;;;;20.47;37.71;99995.41;5438869;32;35865;-66
2023/04/19 14:18:36;;;;;;;;;;;;;;;20.50;37.21;99991.66;5433244;32;34838;-71
2023/04/19 14:21:38;;;;;;;;;;;;;;;20.33;36.87;99986.88;5422063;32;34359;-69
2023/04/19 14:24:40;;;;;;;;;;;;;;;20.31;37.70;99996.84;5431455;32;43299;-67
2023/04/19 14:27:42;;;;;;;;;;;;;;;20.68;37.89;99997.22;5419064;32;36139;-69
2023/04/19 14:30:44;;;;;;;;;;;;;;;20.14;39.29;99999.13;5402488;32;34203;-68
2023/04/19 14:33:46;;;;;;;;;;;;;;;19.51;40.33;99997.31;5426505;32;35642;-69
2023/04/19 14:36:48;;;;;;;;;;;;;;;20.28;38.65;100000.63;5426879;32;34271;-69
2023/04/19 14:39:52;;;;;;;;;;;;;;;19.27;40.11;100008.19;5417646;32;34271;-68
2023/04/19 14:42:54;;;;;;;;;;;;;;;19.05;40.80;100006.41;5418963;32;34351;-66
2023/04/19 14:45:56;;;;;;;;;;;;;;;20.14;38.71;99995.63;5429601;32;35325;-68
2023/04/19 14:49:02;;;;;;;;;;;;;;;19.71;39.08;100001.91;5421104;32;34618;-69
2023/04/19 14:52:04;;;;;;;;;;;;;;;19.28;40.38;100001.88;5436808;32;34286;-69
2023/04/19 14:55:06;;;;;;;;;;;;;;;19.68;39.14;100003.00;5421525;32;35317;-68
2023/04/19 14:58:08;;;;;;;;;;;;;;;18.80;40.68;100008.34;5438174;32;35100;-69
2023/04/19 15:01:13;;;;;;;;;;;;;;;18.82;41.07;100006.44;5438937;32;34728;-69
2023/04/19 15:04:15;;;;;;;;;;;;;;;19.16;40.25;100011.72;5419761;32;34965;-69
2023/04/19 15:07:17;;;;;;;;;;;;;;;20.02;38.41;100016.16;5438990;32;34563;-69
2023/04/19 15:10:19;;;;;;;;;;;;;;;19.23;40.22;100002.25;5438247;32;34902;-69
2023/04/19 15:13:21;;;;;;;;;;;;;;;18.83;41.63;100023.25;5436279;32;34582;-69
2023/04/19 15:16:23;;;;;;;;;;;;;;;18.18;42.95;100031.84;5432775;32;35914;-69
2023/04/19 15:19:25;;;;;;;;;;;;;;;18.38;42.98;100029.34;5429280;32;35480;-69
2023/04/19 15:22:27;;;;;;;;;;;;;;;17.97;43.39;100032.53;5427631;32;34833;-69
2023/04/19 15:25:29;;;;;;;;;;;;;;;18.16;42.69;100021.31;5430177;32;34715;-68
2023/04/19 15:28:33;;;;;;;;;;;;;;;18.45;42.36;100031.53;5437729;32;35194;-67
2023/04/19 15:31:35;;;;;;;;;;;;;;;18.47;42.41;100040.25;5412195;32;35339;-68
2023/04/19 15:34:37;;;;;;;;;;;;;;;17.84;43.80;100034.41;5437962;32;35750;-69
2023/04/19 15:37:40;;;;;;;;;;;;;;;17.89;43.83;100045.53;5417118;32;34816;-69
2023/04/19 15:40:42;;;;;;;;;;;;;;;17.55;44.93;100045.34;5438784;32;44467;-69
2023/04/19 15:43:44;;;;;;;;;;;;;;;17.76;44.18;100040.28;5439275;32;36967;-70